Time;durP1;ratioP1;P1;durP2;ratioP2;P2;SDS_P1;SDS_P2;PMS_P1;PMS_P2;Temp;Humidity;BMP_temperature;BMP_pressure;BME280_temperature;BME280_humidity;BME280_pressure;Samples;Min_cycle;Max_cycle;Signal;HPM_P1;HPM_P2
2022/07/05 00:01:16;;;;;;;;;2.67;2.67;;;;;18.57;58.70;101497.63;4949245;28;45385;-83
2022/07/05 00:03:41;;;;;;;;;2.67;2.67;;;;;18.56;57.82;101504.81;4932666;28;44878;-82
2022/07/05 00:06:07;;;;;;;;;2.33;2.00;;;;;18.51;58.76;101503.94;4959727;28;45366;-83
2022/07/05 00:08:32;;;;;;;;;3.00;3.00;;;;;18.45;59.36;101501.28;4933354;28;45377;-83
2022/07/05 00:10:57;;;;;;;;;2.00;2.00;;;;;18.38;61.04;101497.75;4933349;28;45340;-83
2022/07/05 00:13:23;;;;;;;;;2.00;2.00;;;;;18.30;60.42;101502.28;4935619;28;45396;-83
2022/07/05 00:15:48;;;;;;;;;2.67;2.33;;;;;18.22;59.85;101500.50;4934694;28;45016;-83
2022/07/05 00:18:15;;;;;;;;;1.33;1.33;;;;;18.08;62.27;101506.00;4934730;28;45498;-83
2022/07/05 00:20:45;;;;;;;;;1.67;1.67;;;;;18.03;59.86;101499.72;4933450;28;45463;-83
2022/07/05 00:23:11;;;;;;;;;2.00;2.00;;;;;17.92;62.63;101497.97;4949263;28;45802;-83
2022/07/05 00:25:38;;;;;;;;;2.00;2.00;;;;;17.84;61.19;101498.91;4934890;28;44834;-83
2022/07/05 00:28:04;;;;;;;;;2.00;2.00;;;;;17.80;61.29;101498.88;4934113;28;46199;-83
2022/07/05 00:30:30;;;;;;;;;1.00;1.00;;;;;17.76;61.57;101507.88;4947585;28;45484;-83
2022/07/05 00:32:55;;;;;;;;;3.00;3.00;;;;;17.70;64.05;101497.13;4915796;28;44903;-83
2022/07/05 00:35:22;;;;;;;;;3.00;3.00;;;;;17.62;62.43;101496.25;4946434;28;45321;-82
2022/07/05 00:37:48;;;;;;;;;1.33;1.00;;;;;17.53;65.31;101505.25;4931921;28;45517;-82
2022/07/05 00:40:13;;;;;;;;;2.00;2.00;;;;;17.51;62.79;101500.75;4962645;28;45565;-81
2022/07/05 00:42:39;;;;;;;;;2.00;2.00;;;;;17.51;63.60;101506.13;4931293;28;44809;-82
2022/07/05 00:45:06;;;;;;;;;2.00;2.00;;;;;17.45;63.55;101503.47;4931419;28;45409;-82
2022/07/05 00:47:41;;;;;;;;;1.67;1.67;;;;;17.38;62.54;101505.28;4931948;28;45412;-82
2022/07/05 00:50:07;;;;;;;;;1.00;1.00;;;;;17.32;64.52;101511.56;4930865;28;45440;-82
2022/07/05 00:55:54;;;;;;;;;1.67;1.67;;;;;17.19;64.72;101512.47;4930371;28;44732;-82
2022/07/05 00:58:19;;;;;;;;;1.00;1.00;;;;;17.14;63.97;101506.19;4930993;28;45314;-82
2022/07/05 01:00:45;;;;;;;;;2.00;1.00;;;;;17.14;64.93;101511.56;4960530;28;45453;-82
2022/07/05 01:03:12;;;;;;;;;2.33;1.00;;;;;17.11;65.06;101506.22;4931416;28;45456;-82
2022/07/05 01:05:40;;;;;;;;;1.00;1.00;;;;;16.96;66.04;101497.25;4916290;28;45416;-81
2022/07/05 01:08:05;;;;;;;;;2.00;2.00;;;;;16.97;66.64;101515.16;4931814;28;45488;-82
2022/07/05 01:10:31;;;;;;;;;3.00;3.00;;;;;16.94;65.73;101508.88;4929913;28;45745;-83
2022/07/05 01:12:56;;;;;;;;;1.33;1.33;;;;;16.88;69.79;101515.16;4932201;28;44812;-83
2022/07/05 01:15:23;;;;;;;;;1.00;1.00;;;;;16.82;66.58;101499.03;4932260;28;44927;-83
2022/07/05 01:17:56;;;;;;;;;1.67;1.00;;;;;16.81;67.63;101499.94;4932494;28;48114;-83
2022/07/05 01:20:21;;;;;;;;;3.00;3.00;;;;;16.70;67.71;101496.31;4940465;28;46094;-83
2022/07/05 01:22:59;;;;;;;;;1.00;1.00;;;;;16.73;68.30;101493.63;4928638;28;46067;-82
2022/07/05 01:25:26;;;;;;;;;2.33;2.33;;;;;16.69;70.47;101503.47;4929617;28;45442;-82
2022/07/05 01:27:53;;;;;;;;;1.33;1.33;;;;;16.60;68.28;101499.00;4929503;28;47156;-82
2022/07/05 01:30:21;;;;;;;;;1.33;1.00;;;;;16.60;70.41;101488.25;4913890;28;45521;-82
2022/07/05 01:32:47;;;;;;;;;1.67;1.67;;;;;16.60;67.93;101495.41;4915465;28;45492;-81
2022/07/05 01:35:20;;;;;;;;;1.00;1.00;;;;;16.68;66.89;101504.34;4930200;28;44847;-82
2022/07/05 01:37:49;;;;;;;;;2.67;2.00;;;;;16.57;69.19;101488.25;4931567;28;45449;-82
2022/07/05 01:40:15;;;;;;;;;2.67;2.67;;;;;16.55;68.12;101494.50;4932148;28;45305;-83
2022/07/05 01:42:40;;;;;;;;;2.67;2.00;;;;;16.54;68.55;101499.00;4930480;28;45579;-83
2022/07/05 01:45:06;;;;;;;;;1.00;1.00;;;;;16.52;68.61;101506.16;4932918;28;45305;-82
2022/07/05 01:47:36;;;;;;;;;2.33;2.33;;;;;16.48;69.44;101498.97;4931107;28;48168;-83
2022/07/05 01:50:04;;;;;;;;;1.67;1.67;;;;;16.45;68.29;101504.34;4947303;28;44739;-83
2022/07/05 01:52:31;;;;;;;;;2.00;2.00;;;;;16.40;71.07;101496.28;4932256;28;45430;-82
2022/07/05 01:54:58;;;;;;;;;1.00;1.00;;;;;16.33;69.71;101494.47;4932043;28;45374;-81
2022/07/05 01:57:23;;;;;;;;;2.00;2.00;;;;;16.30;69.50;101501.59;4931450;28;45523;-82
2022/07/05 01:59:49;;;;;;;;;3.67;2.33;;;;;16.28;71.34;101501.63;4931090;28;45722;-82
2022/07/05 02:02:15;;;;;;;;;1.00;1.00;;;;;16.23;69.86;101497.13;4932937;28;45677;-81
2022/07/05 02:04:41;;;;;;;;;1.33;1.00;;;;;16.20;73.78;101498.91;4946821;28;45317;-81
2022/07/05 02:07:07;;;;;;;;;2.00;2.00;;;;;16.15;70.55;101495.28;4948563;28;46779;-83
2022/07/05 02:09:35;;;;;;;;;1.00;1.00;;;;;16.14;70.39;101496.19;4948152;28;45586;-83
2022/07/05 02:12:03;;;;;;;;;2.00;2.00;;;;;16.15;71.46;101495.28;4949390;28;44812;-83
2022/07/05 02:14:28;;;;;;;;;1.33;1.33;;;;;16.05;72.89;101471.13;4950266;28;45698;-83
2022/07/05 02:16:54;;;;;;;;;1.33;1.33;;;;;16.07;72.06;101486.31;4949607;28;47442;-83
2022/07/05 02:19:23;;;;;;;;;3.00;1.33;;;;;16.06;73.69;101487.22;4933520;28;45429;-82
2022/07/05 02:21:49;;;;;;;;;1.00;1.00;;;;;15.98;73.30;101481.84;4950868;28;45420;-82
2022/07/05 02:24:14;;;;;;;;;2.00;2.00;;;;;15.97;72.41;101490.75;4950837;28;44819;-82
2022/07/05 02:26:40;;;;;;;;;2.00;2.00;;;;;15.88;72.52;101466.59;4917395;28;46797;-82
2022/07/05 02:29:12;;;;;;;;;3.00;2.00;;;;;15.86;73.78;101464.81;4932929;28;45248;-82
2022/07/05 02:31:37;;;;;;;;;2.00;2.00;;;;;15.94;74.34;101484.50;4947717;28;45461;-83
2022/07/05 02:34:02;;;;;;;;;2.33;1.00;;;;;15.91;74.78;101477.31;4949728;28;45544;-82
2022/07/05 02:39:49;;;;;;;;;2.67;2.67;;;;;15.87;77.95;101478.19;4948876;28;45297;-83
2022/07/05 02:42:15;;;;;;;;;3.00;3.00;;;;;15.83;76.48;101478.19;4948522;28;45863;-82
2022/07/05 02:44:40;;;;;;;;;1.33;1.33;;;;;15.82;78.77;101484.47;4947729;28;45354;-82
2022/07/05 02:47:06;;;;;;;;;2.00;2.00;;;;;15.77;77.27;101477.28;4932676;28;46341;-82
2022/07/05 02:49:34;;;;;;;;;3.00;3.00;;;;;15.72;76.93;101468.31;4951074;28;45551;-83
2022/07/05 02:52:00;;;;;;;;;3.00;3.00;;;;;15.83;76.47;101488.94;4951686;28;45397;-82
2022/07/05 02:54:25;;;;;;;;;4.00;4.00;;;;;15.86;76.63;101479.09;4950261;28;44768;-82
2022/07/05 02:56:51;;;;;;;;;2.00;2.00;;;;;15.89;76.12;101480.91;4933186;28;47979;-81
2022/07/05 02:59:16;;;;;;;;;2.00;2.00;;;;;15.92;76.47;101483.59;4932282;28;45321;-82
2022/07/05 03:01:41;;;;;;;;;2.67;2.67;;;;;15.89;76.68;101484.47;4935111;28;45431;-82
2022/07/05 03:04:09;;;;;;;;;3.00;2.00;;;;;15.92;75.73;101486.28;4913720;28;45472;-81
2022/07/05 03:06:35;;;;;;;;;4.00;2.33;;;;;15.93;76.24;101490.75;4929385;28;45544;-82
2022/07/05 03:09:00;;;;;;;;;3.00;2.67;;;;;15.92;75.90;101481.81;4930063;28;45422;-82
2022/07/05 03:11:26;;;;;;;;;3.00;3.00;;;;;15.92;76.27;101478.25;4933752;28;45275;-82
2022/07/05 03:13:51;;;;;;;;;5.00;3.00;;;;;15.90;77.22;101480.03;4913161;28;45432;-82
2022/07/05 03:16:19;;;;;;;;;3.33;3.33;;;;;15.89;76.96;101484.47;4930604;28;47691;-82
2022/07/05 03:18:44;;;;;;;;;3.00;3.00;;;;;15.91;77.67;101479.13;4914589;28;45768;-82
2022/07/05 03:21:13;;;;;;;;;3.33;3.33;;;;;15.90;77.58;101477.34;4914715;28;45433;-80
2022/07/05 03:23:39;;;;;;;;;4.00;4.00;;;;;15.88;79.08;101481.81;4949112;28;45604;-82
2022/07/05 03:26:05;;;;;;;;;3.67;3.67;;;;;15.83;78.79;101475.50;4950764;28;45412;-82
2022/07/05 03:28:30;;;;;;;;;5.33;5.00;;;;;15.76;77.46;101479.97;4951010;28;45352;-82
2022/07/05 03:30:56;;;;;;;;;4.67;4.33;;;;;15.77;76.79;101484.41;4936255;28;45884;-83
2022/07/05 03:33:21;;;;;;;;;4.00;4.00;;;;;15.75;77.75;101495.16;4955133;28;45551;-84
2022/07/05 03:35:46;;;;;;;;;5.00;4.00;;;;;15.76;77.78;101490.69;4934363;28;46994;-82
2022/07/05 03:38:12;;;;;;;;;4.00;4.00;;;;;15.77;78.16;101497.81;4936373;28;45531;-82
2022/07/05 03:40:37;;;;;;;;;4.67;4.67;;;;;15.70;79.97;101490.63;4952879;28;44824;-83
2022/07/05 03:43:03;;;;;;;;;6.00;6.00;;;;;15.71;78.79;101497.78;4936395;28;45477;-82
2022/07/05 03:45:28;;;;;;;;;3.67;3.67;;;;;15.71;79.37;101492.41;4949139;28;47140;-83
2022/07/05 03:48:00;;;;;;;;;2.00;2.00;;;;;15.72;79.63;101500.50;4950876;28;45338;-82
2022/07/05 03:50:27;;;;;;;;;4.00;3.67;;;;;15.69;80.77;101500.44;4949973;28;45654;-82
2022/07/05 03:52:52;;;;;;;;;3.00;3.00;;;;;15.75;80.07;101505.91;4932200;28;45544;-81
2022/07/05 03:55:17;;;;;;;;;4.00;4.00;;;;;15.75;80.34;101495.16;4949262;28;45397;-82
2022/07/05 03:57:43;;;;;;;;;6.00;5.00;;;;;15.77;81.17;101505.88;4947435;28;45441;-82
2022/07/05 04:00:09;;;;;;;;;5.67;4.67;;;;;15.78;80.93;101507.69;4950540;28;45389;-82
2022/07/05 04:02:34;;;;;;;;;7.00;5.00;;;;;15.84;81.03;101509.50;4927322;28;45556;-82
2022/07/05 04:05:00;;;;;;;;;5.33;4.67;;;;;15.86;81.24;101518.47;4917239;28;46630;-82
2022/07/05 04:07:25;;;;;;;;;5.67;4.67;;;;;15.92;81.83;101513.13;4933259;28;45475;-82
2022/07/05 04:09:50;;;;;;;;;5.33;5.00;;;;;15.91;82.58;101505.94;4933086;28;45137;-82
2022/07/05 04:12:16;;;;;;;;;4.33;4.33;;;;;15.95;80.92;101518.47;4933117;28;45418;-82
2022/07/05 04:14:42;;;;;;;;;3.33;3.33;;;;;15.98;80.98;101522.06;4916466;28;46946;-82
2022/07/05 04:17:10;;;;;;;;;4.00;4.00;;;;;16.03;80.75;101516.72;4932575;28;45371;-82
2022/07/05 04:19:36;;;;;;;;;4.33;3.67;;;;;16.09;81.07;101518.53;4933130;28;44878;-82
2022/07/05 04:22:02;;;;;;;;;6.00;6.00;;;;;16.09;80.91;101510.50;4916593;28;44973;-83
2022/07/05 04:24:27;;;;;;;;;4.00;4.00;;;;;16.11;80.27;101514.06;4916861;28;46670;-84
2022/07/05 04:26:53;;;;;;;;;4.00;4.00;;;;;16.27;80.16;101536.50;4929908;28;45531;-82
2022/07/05 04:29:18;;;;;;;;;4.00;4.00;;;;;16.33;80.05;101531.16;4934237;28;44750;-82
2022/07/05 04:31:43;;;;;;;;;3.67;3.67;;;;;16.47;79.42;101544.63;4916963;28;45425;-82
2022/07/05 04:34:09;;;;;;;;;4.67;3.67;;;;;16.47;79.28;101525.81;4932597;28;46004;-82
2022/07/05 04:36:34;;;;;;;;;5.33;5.00;;;;;16.58;79.07;101537.47;4938870;28;44844;-81
2022/07/05 04:39:09;;;;;;;;;3.67;3.67;;;;;16.71;78.73;101533.03;4932460;28;45738;-82
2022/07/05 04:41:35;;;;;;;;;4.00;4.00;;;;;16.69;78.23;101524.06;4921511;28;44799;-83
2022/07/05 04:44:01;;;;;;;;;4.33;4.33;;;;;16.79;78.35;101526.75;4931515;28;45316;-82
2022/07/05 04:46:26;;;;;;;;;7.00;6.00;;;;;16.84;78.30;101529.47;4914772;28;45804;-82
2022/07/05 04:48:51;;;;;;;;;3.67;3.67;;;;;16.72;79.33;101529.44;4930169;28;46138;-82
2022/07/05 04:51:17;;;;;;;;;5.00;5.00;;;;;16.58;78.28;101522.28;4930988;28;45548;-82
2022/07/05 04:53:42;;;;;;;;;4.00;4.00;;;;;16.59;79.00;101545.53;4931964;28;46294;-82
2022/07/05 04:56:08;;;;;;;;;3.33;3.33;;;;;16.60;79.88;101544.66;4932612;28;45412;-82
2022/07/05 04:58:37;;;;;;;;;5.67;4.00;;;;;16.67;78.65;101528.56;4930877;28;45475;-83
2022/07/05 05:01:05;;;;;;;;;4.00;4.00;;;;;16.79;78.70;101545.56;4930175;28;45476;-82
2022/07/05 05:03:37;;;;;;;;;3.67;3.00;;;;;16.77;79.18;101527.66;4929609;28;45893;-82
2022/07/05 05:06:02;;;;;;;;;5.67;5.00;;;;;16.88;78.38;101542.03;4931881;28;45405;-82
2022/07/05 05:08:35;;;;;;;;;4.67;4.67;;;;;16.93;78.66;101545.63;4931016;28;44811;-84
2022/07/05 05:11:00;;;;;;;;;6.00;6.00;;;;;16.97;78.60;101551.91;4911969;28;45586;-83
2022/07/05 05:13:34;;;;;;;;;4.00;4.00;;;;;16.96;79.90;101542.91;4934927;28;46619;-83
2022/07/05 05:16:03;;;;;;;;;8.00;6.33;;;;;16.99;79.75;101544.72;4935149;28;45428;-83
2022/07/05 05:18:31;;;;;;;;;5.67;4.33;;;;;17.01;80.60;101548.31;4935200;28;45407;-83
2022/07/05 05:20:57;;;;;;;;;4.33;4.33;;;;;17.08;79.27;101551.91;4952120;28;45385;-83
2022/07/05 05:23:22;;;;;;;;;9.67;9.00;;;;;17.14;81.71;101538.44;4951222;28;45369;-83
2022/07/05 05:25:48;;;;;;;;;7.33;7.33;;;;;17.08;82.61;101539.34;4922003;28;45556;-82
2022/07/05 05:28:14;;;;;;;;;7.33;6.00;;;;;17.05;81.65;101555.47;4931290;28;45390;-83
2022/07/05 05:30:39;;;;;;;;;8.67;6.33;;;;;17.05;79.57;101557.25;4928513;28;45002;-80
2022/07/05 05:33:11;;;;;;;;;8.67;5.67;;;;;17.03;80.35;101559.97;4912463;28;46889;-82
2022/07/05 05:35:36;;;;;;;;;6.00;5.00;;;;;17.03;81.37;101556.34;4929284;28;45479;-82
2022/07/05 05:38:02;;;;;;;;;7.00;6.00;;;;;17.07;80.68;101560.88;4946345;28;45372;-82
2022/07/05 05:40:27;;;;;;;;;7.67;7.67;;;;;17.06;82.35;101553.69;4914499;28;45471;-83
2022/07/05 05:42:54;;;;;;;;;11.33;9.00;;;;;17.19;80.16;101564.44;4914775;28;45364;-83
2022/07/05 05:45:21;;;;;;;;;7.67;7.67;;;;;17.33;81.12;101566.22;4916160;28;45606;-83
2022/07/05 05:47:52;;;;;;;;;9.33;7.00;;;;;17.46;79.61;101559.06;4932612;28;45546;-84
2022/07/05 05:50:22;;;;;;;;;10.33;6.67;;;;;17.56;79.31;101571.59;4914980;28;45442;-83
2022/07/05 05:52:48;;;;;;;;;7.67;7.67;;;;;17.64;79.56;101569.78;4913368;28;47134;-84
2022/07/05 05:55:17;;;;;;;;;6.00;6.00;;;;;17.87;78.54;101575.13;4931798;28;45350;-84
2022/07/05 05:57:43;;;;;;;;;8.33;7.00;;;;;18.03;78.96;101575.09;4913925;28;45339;-84
2022/07/05 06:00:11;;;;;;;;;8.67;8.33;;;;;17.91;76.96;101571.53;4915193;28;45644;-84
2022/07/05 06:02:37;;;;;;;;;14.00;8.67;;;;;18.05;76.77;101574.19;4931306;28;47006;-82
2022/07/05 06:05:02;;;;;;;;;8.33;6.67;;;;;18.11;77.71;101593.00;4915178;28;45521;-80
2022/07/05 06:07:28;;;;;;;;;8.00;8.00;;;;;18.14;76.80;101565.19;4935212;28;45492;-82
2022/07/05 06:09:53;;;;;;;;;7.67;7.00;;;;;18.19;76.25;101566.94;4953970;28;45433;-81
2022/07/05 06:12:19;;;;;;;;;9.67;8.67;;;;;18.28;76.11;101581.25;4919681;28;46679;-83
2022/07/05 06:14:47;;;;;;;;;5.67;5.67;;;;;18.42;75.85;101573.13;4932727;28;45908;-82
2022/07/05 06:17:18;;;;;;;;;10.33;8.00;;;;;18.47;75.24;101566.81;4932771;28;44847;-82
2022/07/05 06:19:44;;;;;;;;;8.33;8.33;;;;;18.69;75.55;101582.88;4936926;28;45576;-83
2022/07/05 06:22:17;;;;;;;;;7.33;6.33;;;;;18.62;74.03;101573.00;4936574;28;47994;-83
2022/07/05 06:24:54;;;;;;;;;8.00;6.67;;;;;18.88;74.29;101589.94;4936118;28;44816;-83
2022/07/05 06:27:23;;;;;;;;;6.00;5.00;;;;;18.97;73.74;101579.09;4954087;28;44835;-83
2022/07/05 06:29:55;;;;;;;;;7.67;7.00;;;;;19.03;73.22;101574.56;4936763;28;45489;-83
2022/07/05 06:32:45;;;;;;;;;10.33;7.33;;;;;19.22;72.69;101595.09;4939049;28;46929;-83
2022/07/05 06:35:12;;;;;;;;;10.00;9.33;;;;;19.17;71.86;101556.50;4952462;28;45459;-83
2022/07/05 06:37:46;;;;;;;;;7.00;7.00;;;;;19.26;72.03;101575.28;4936108;28;45474;-83
2022/07/05 06:40:26;;;;;;;;;6.00;5.00;;;;;19.30;71.53;101584.25;4952195;28;45395;-83
2022/07/05 06:49:35;;;;;;;;;5.33;5.33;;;;;19.76;69.56;101587.44;4953980;28;44783;-83
2022/07/05 06:52:01;;;;;;;;;7.33;6.00;;;;;19.56;69.54;101547.13;4934576;28;44916;-83
2022/07/05 06:54:27;;;;;;;;;7.00;7.00;;;;;19.61;69.19;101552.47;4931197;28;46946;-83
2022/07/05 06:56:58;;;;;;;;;6.00;6.00;;;;;19.75;69.12;101574.88;4933088;28;45417;-83
2022/07/05 06:59:40;;;;;;;;;8.00;8.00;;;;;19.65;68.30;101546.13;4914971;28;44795;-83
2022/07/05 07:02:05;;;;;;;;;9.00;8.00;;;;;19.85;68.88;101564.84;4932531;28;45341;-83
2022/07/05 07:04:39;;;;;;;;;7.00;7.00;;;;;20.18;68.08;101579.75;4945520;28;46838;-84
2022/07/05 07:10:22;;;;;;;;;8.67;8.33;;;;;20.06;67.23;101552.91;4875313;28;45375;-84
2022/07/05 07:12:48;;;;;;;;;10.33;8.67;;;;;20.24;67.13;101586.91;4859667;29;46076;-84
2022/07/05 07:15:21;;;;;;;;;8.00;7.00;;;;;19.99;66.85;101529.56;4859498;28;46874;-83
2022/07/05 07:17:46;;;;;;;;;7.33;7.33;;;;;20.46;66.39;101581.19;4863882;29;45430;-83
2022/07/05 07:20:24;;;;;;;;;5.00;4.00;;;;;20.35;66.19;101570.53;4893784;28;44854;-83
2022/07/05 07:23:07;;;;;;;;;8.00;8.00;;;;;20.24;66.00;101550.88;4878960;28;45982;-83
2022/07/05 07:25:54;;;;;;;;;;;;;;;;;;;;;
2022/07/05 07:28:20;;;;;;;;;6.33;6.33;;;;;20.34;65.17;101552.53;4893280;29;71958;-83
2022/07/05 07:30:46;;;;;;;;;8.33;7.00;;;;;20.30;65.55;101557.09;4879057;28;45455;-83
2022/07/05 07:37:37;;;;;;;;;7.00;5.67;;;;;20.49;64.83;101549.63;4974992;23;45598;-84
2022/07/05 07:40:24;;;;;;;;;3.33;3.33;;;;;20.81;64.35;101561.81;4969465;28;45419;-86
2022/07/05 07:43:41;;;;;;;;;6.33;6.33;;;;;20.91;63.64;101557.16;4973281;28;45193;-85
2022/07/05 07:46:39;;;;;;;;;8.00;8.00;;;;;21.25;63.04;101597.16;4918856;28;45634;-85
2022/07/05 07:49:44;;;;;;;;;;;;;;;;;;;;;
2022/07/05 07:56:10;;;;;;;;;8.67;7.00;;;;;21.31;62.26;101614.22;4912109;29;45208;-83
2022/07/05 07:59:27;;;;;;;;;;;;;;;;;;;;;
2022/07/05 08:02:27;;;;;;;;;6.67;6.67;;;;;21.16;62.01;101579.28;4807673;29;74611;-85
2022/07/05 08:07:52;;;;;;;;;8.33;8.00;;;;;21.23;61.17;101583.69;4802313;29;45252;-85
2022/07/05 08:10:59;;;;;;;;;8.67;7.00;;;;;21.32;61.71;101597.03;4803201;29;45321;-85
2022/07/05 08:13:42;;;;;;;;;;;;;;;;;;;;;
2022/07/05 08:16:33;;;;;;;;;6.00;5.00;;;;;21.48;61.50;101591.41;4793385;29;72698;-83
2022/07/05 08:25:16;;;;;;;;;;;;;;;;;;;;;
2022/07/05 08:28:09;;;;;;;;;9.00;7.67;;;;;21.86;59.71;101597.94;4839626;29;72342;-84
2022/07/05 09:02:45;;;;;;;;;7.33;6.33;;;;;22.83;55.84;101602.25;4652162;23;46676;-85
2022/07/05 09:14:28;;;;;;;;;9.00;9.00;;;;;23.18;53.98;101581.53;4956685;28;45070;-85
2022/07/05 09:17:26;;;;;;;;;6.00;6.00;;;;;23.06;54.08;101574.59;4953640;28;45566;-83
2022/07/05 09:20:26;;;;;;;;;6.00;6.00;;;;;22.81;53.76;101585.09;4951764;28;45440;-83
2022/07/05 09:23:33;;;;;;;;;;;;;;;;;;;;;
2022/07/05 09:26:49;;;;;;;;;;;;;;;;;;;;;
2022/07/05 09:29:21;;;;;;;;;8.00;6.67;;;;;22.68;52.42;101564.63;4914053;28;72280;-81
2022/07/05 09:32:26;;;;;;;;;7.00;7.00;;;;;22.84;52.88;101581.41;4914148;29;44843;-83
2022/07/05 09:35:36;;;;;;;;;;;;;;;;;;;;;
2022/07/05 09:38:33;;;;;;;;;7.33;7.00;;;;;22.61;52.69;101553.03;4856211;29;74441;-83
2022/07/05 09:41:44;;;;;;;;;;;;;;;;;;;;;
2022/07/05 09:44:30;;;;;;;;;5.67;5.67;;;;;22.57;51.90;101554.91;4819618;29;67932;-83
2022/07/05 09:47:30;;;;;;;;;7.33;7.33;;;;;22.75;51.95;101585.25;4817051;29;44928;-82
2022/07/05 09:50:57;;;;;;;;;9.67;6.00;;;;;22.71;52.24;101573.56;4804586;29;47381;-85
2022/07/05 09:54:05;;;;;;;;;8.00;8.00;;;;;23.07;52.23;101586.34;4747078;29;45498;-84
2022/07/05 09:57:30;;;;;;;;;;;;;;;;;;;;;
2022/07/05 10:00:38;;;;;;;;;6.00;6.00;;;;;23.46;49.50;101588.97;4712284;29;66117;-85
2022/07/05 10:06:24;;;;;;;;;;;;;;;;;;;;;
2022/07/05 10:08:54;;;;;;;;;13.33;12.00;;;;;23.39;49.76;101592.75;4696178;30;68120;-83
2022/07/05 10:11:45;;;;;;;;;11.00;8.67;;;;;23.49;49.92;101583.44;4719321;30;45324;-84
2022/07/05 10:22:35;;;;;;;;;6.33;6.33;;;;;23.25;48.10;101572.31;5528452;23;46982;-84
2022/07/05 10:27:53;;;;;;;;;5.33;5.33;;;;;23.50;48.64;101588.84;4992868;23;45290;-83
2022/07/05 10:30:20;;;;;;;;;5.33;5.33;;;;;23.49;49.26;101578.94;4960478;28;45128;-83
2022/07/05 10:32:49;;;;;;;;;7.33;5.67;;;;;23.50;47.98;101587.97;4957308;28;45333;-83
2022/07/05 10:35:17;;;;;;;;;5.00;5.00;;;;;23.52;48.24;101586.09;4955909;28;47938;-84
2022/07/05 10:37:46;;;;;;;;;6.00;6.00;;;;;23.61;48.10;101574.97;4974093;28;45273;-83
2022/07/05 10:40:19;;;;;;;;;5.00;5.00;;;;;23.63;47.41;101574.94;4975183;28;44717;-84
2022/07/05 10:43:13;;;;;;;;;6.00;6.00;;;;;23.63;47.08;101572.22;4958037;28;45276;-85
2022/07/05 10:46:07;;;;;;;;;6.00;5.67;;;;;23.43;47.04;101549.25;4956611;28;48173;-84
2022/07/05 10:48:42;;;;;;;;;5.67;5.67;;;;;23.41;47.83;101567.38;4974766;28;45164;-85
2022/07/05 10:51:15;;;;;;;;;4.00;4.00;;;;;23.53;47.34;101567.06;4954979;28;44894;-87
2022/07/05 10:57:44;;;;;;;;;6.00;6.00;;;;;23.44;45.84;101528.41;4946043;28;45405;-84
2022/07/05 11:00:16;;;;;;;;;8.00;5.00;;;;;23.55;45.17;101521.75;4918442;28;45566;-84
2022/07/05 11:02:47;;;;;;;;;6.00;6.00;;;;;23.76;45.90;101547.41;4916295;28;44879;-84
2022/07/05 11:05:33;;;;;;;;;;;;;;;;;;;;;
2022/07/05 11:08:23;;;;;;;;;5.00;5.00;;;;;23.83;45.56;101506.53;4948554;28;74421;-84
2022/07/05 11:15:03;;;;;;;;;6.33;4.67;;;;;24.04;44.98;101530.34;4868553;28;44870;-84
2022/07/05 11:18:13;;;;;;;;;4.67;4.67;;;;;24.25;44.74;101560.53;4859935;29;45528;-86
2022/07/05 11:21:20;;;;;;;;;4.33;4.33;;;;;24.22;45.10;101523.47;4887383;29;45503;-85
2022/07/05 11:24:19;;;;;;;;;5.00;4.67;;;;;24.50;43.61;101552.56;4869546;28;45395;-84
2022/07/05 11:27:38;;;;;;;;;2.67;2.67;;;;;24.49;42.71;101557.06;5030892;23;45925;-85
2022/07/05 11:30:52;;;;;;;;;7.67;7.00;;;;;24.43;43.11;101532.78;4933523;28;45465;-86
2022/07/05 11:33:54;;;;;;;;;6.33;6.33;;;;;24.71;43.71;101543.72;4902489;28;45460;-84
2022/07/05 11:36:32;;;;;;;;;8.00;6.00;;;;;24.88;42.90;101518.69;4911480;29;45593;-85
2022/07/05 11:39:19;;;;;;;;;3.00;3.00;;;;;25.18;41.73;101509.53;4893437;29;45862;-87
2022/07/05 11:41:48;;;;;;;;;4.00;3.67;;;;;25.21;41.44;101507.63;4879347;28;44928;-86
2022/07/05 11:44:17;;;;;;;;;6.67;5.67;;;;;25.24;41.95;101515.69;4896773;28;45413;-85
2022/07/05 11:46:43;;;;;;;;;5.00;5.00;;;;;25.30;42.20;101526.34;4897534;28;45482;-85
2022/07/05 11:49:33;;;;;;;;;3.00;3.00;;;;;25.06;40.92;101516.28;4897686;29;45830;-86
2022/07/05 11:55:20;;;;;;;;;5.67;4.00;;;;;24.83;41.40;101509.78;4917750;28;44942;-86
2022/07/05 12:02:59;;;;;;;;;4.67;4.67;;;;;25.00;41.24;101513.78;5177690;23;45772;-86
2022/07/05 12:05:55;;;;;;;;;3.33;3.33;;;;;25.20;41.57;101543.94;4957444;28;46284;-86
2022/07/05 12:08:31;;;;;;;;;4.00;3.67;;;;;25.19;41.30;101527.63;4881473;29;45254;-85
2022/07/05 12:24:42;;;;;;;;;4.00;4.00;;;;;25.09;41.57;101518.91;4976121;28;45310;-85
2022/07/05 12:30:06;;;;;;;;;3.00;3.00;;;;;25.04;41.19;101523.63;3822318;23;45440;-84
2022/07/05 12:36:28;;;;;;;;;;;;;;;;;;;;;
2022/07/05 12:42:56;;;;;;;;;;;;;;;;;;;;;
2022/07/05 12:59:29;;;;;;;;;3.33;3.00;;;;;25.03;40.50;101514.56;5081450;23;45959;-84
2022/07/05 13:02:41;;;;;;;;;4.00;4.00;;;;;25.27;40.48;101515.59;4958621;28;44815;-85
2022/07/05 13:05:36;;;;;;;;;4.00;4.00;;;;;25.26;39.47;101464.78;5089472;23;46937;-84
2022/07/05 13:09:11;;;;;;;;;2.00;2.00;;;;;25.75;39.41;101503.88;5201341;23;46056;-85
2022/07/05 13:11:37;;;;;;;;;4.00;4.00;;;;;25.62;37.50;101493.47;4912206;28;45441;-84
2022/07/05 13:14:17;;;;;;;;;4.00;4.00;;;;;25.60;37.79;101528.06;4931569;28;45019;-85
2022/07/05 13:17:17;;;;;;;;;2.00;2.00;;;;;25.33;38.43;101488.16;4934463;28;45400;-85
2022/07/05 13:20:09;;;;;;;;;5.00;4.00;;;;;25.30;38.62;101482.78;4893828;28;45410;-86
2022/07/05 13:27:57;;;;;;;;;;;;;;;;;;;;;
2022/07/05 13:30:27;;;;;;;;;3.33;3.33;;;;;25.22;37.13;101479.47;4976930;28;71287;-85
2022/07/05 13:32:53;;;;;;;;;4.67;2.67;;;;;25.15;37.90;101478.75;4975519;28;44874;-85
2022/07/05 13:36:13;;;;;;;;;;;;;;;;;;;;;
2022/07/05 13:38:54;;;;;;;;;1.33;1.33;;;;;25.55;36.21;101520.03;4955410;28;76226;-85
2022/07/05 13:41:37;;;;;;;;;;;;;;;;;;;;;
2022/07/05 13:44:03;;;;;;;;;4.00;4.00;;;;;25.61;36.49;101514.41;4975457;28;68740;-86
2022/07/05 13:46:29;;;;;;;;;4.33;4.33;;;;;25.79;36.65;101509.19;4978317;28;45265;-85
2022/07/05 13:49:12;;;;;;;;;3.67;2.33;;;;;26.03;35.14;101475.59;4976939;28;46729;-86
2022/07/05 13:51:51;;;;;;;;;3.67;3.67;;;;;27.79;32.92;101495.53;4974993;28;45439;-84
2022/07/05 13:54:27;;;;;;;;;4.33;4.33;;;;;30.08;28.73;101508.69;4975358;28;44964;-84
2022/07/05 14:22:55;;;;;;;;;2.00;2.00;;;;;38.83;18.09;101494.53;4994032;23;45462;-87
2022/07/05 14:25:24;;;;;;;;;4.00;2.33;;;;;38.67;19.60;101495.09;4928434;28;44817;-88
2022/07/05 14:28:38;;;;;;;;;;;;;;;;;;;;;
2022/07/05 14:31:13;;;;;;;;;3.00;3.00;;;;;38.98;17.29;101479.19;4874737;28;74480;-87
2022/07/05 14:33:39;;;;;;;;;3.00;3.00;;;;;38.10;19.98;101490.06;4875961;28;45390;-88
2022/07/05 14:36:29;;;;;;;;;2.33;2.33;;;;;38.80;20.14;101493.81;4860287;29;45610;-86
2022/07/05 14:38:55;;;;;;;;;3.00;3.00;;;;;39.97;18.91;101460.28;4865375;28;44888;-86
2022/07/05 14:41:23;;;;;;;;;3.67;3.67;;;;;40.75;18.64;101486.91;4874698;29;45754;-85
2022/07/05 14:43:51;;;;;;;;;2.33;2.33;;;;;39.52;19.27;101469.34;4860485;29;45181;-87
2022/07/05 14:46:31;;;;;;;;;4.00;4.00;;;;;40.11;17.75;101458.03;4875896;28;44857;-85
2022/07/05 14:49:19;;;;;;;;;3.00;3.00;;;;;40.29;17.16;101455.28;4824298;29;45360;-86
2022/07/05 15:26:50;;;;;;;;;2.33;2.33;;;;;47.83;10.35;101460.22;2524072;23;45128;-87
2022/07/05 15:29:27;;;;;;;;;3.00;3.00;;;;;47.81;11.92;101462.38;4937151;28;45281;-87
2022/07/05 15:32:14;;;;;;;;;2.00;2.00;;;;;47.95;12.20;101445.56;4938672;28;45539;-87
2022/07/05 15:34:53;;;;;;;;;1.67;1.67;;;;;48.54;12.29;101433.66;4940192;28;45591;-87
2022/07/05 15:40:52;;;;;;;;;1.67;1.67;;;;;47.99;11.77;101475.09;4955605;28;45312;-87
2022/07/05 15:43:41;;;;;;;;;4.33;3.33;;;;;48.22;11.07;101443.72;4935017;28;45351;-87
2022/07/05 15:46:13;;;;;;;;;3.00;3.00;;;;;49.21;11.25;101445.06;4936424;28;45426;-87
2022/07/05 15:48:44;;;;;;;;;3.33;3.33;;;;;50.36;10.36;101437.00;4947700;28;45415;-86
2022/07/05 15:54:36;;;;;;;;;3.00;3.00;;;;;50.64;10.21;101466.91;4909820;28;45502;-86
2022/07/05 15:57:18;;;;;;;;;3.00;3.00;;;;;50.67;10.97;101448.63;4912308;28;46788;-87
2022/07/05 15:59:49;;;;;;;;;3.67;3.67;;;;;51.14;10.31;101457.69;4919723;28;44859;-88